Airfield :
LOGIN :

Register | Disclaimer

   EN    FR    IT 

 










Legend :    VFR   Marginal VFR   IFR   Intensive IFR   Very Intensive IFR
Visi :
Ceiling :
>= 8 km
>= 3000ft
5 to 8 km
1000 to 3000 ft
1500m to 5 km
500 to 1000 ft
800 to 1500m
200 to 500 ft
< 800m
< 200 ft
Symbols :   Thunderstorms  Fog  Heavy snow  Heavy precipitations  Wind > 20 kt
SIGMETs :     Misc.  Thunderstorms  Icing  Turbulence  Mountain Waves  Volcanic Ashes






- Airport Elevation : 479 ft
- IATA code : DOL


LFRG - Deauville

CURRENT METAR :
  • 160430Z AUTO 19015KT 9999 OVC008/// ///TCU 13/13 Q1005

EXPIRED METARs :
  • 160400Z AUTO 18014KT 9999 -RA OVC006/// ///CB 13/13 Q1005
  • 160330Z AUTO 18011KT 150V210 4600 -RA BR OVC008/// ///CB 13/12 Q1005
  • 160300Z AUTO 18012KT 5000 RA BR BKN006/// OVC010/// ///CB 12/12 Q1005
  • 160230Z AUTO 17011KT 130V190 9999 -RA BKN006/// OVC011/// ///TCU 12/12 Q1006
  • 160200Z AUTO 16009KT 100V190 4100 -RA BR BKN006/// OVC013/// ///TCU 12/11 Q1006

Expired Forecast.
ATIS : +33 2 31 65 65 36



MET'MAP, your aeronautical weather chart ! - Copyright ORBIFLY December 2007 - Disclaimer

ORBIFLY MET'MAP TEAM :

Programming & Development : Alexandra Zaïnal
Concept & Development : Baudouin d'Aumeries
Co-Development & Prog : Marc-Olivier Méhu
Technical & hardware support : Manuel Goepfert

Contact : metmap@orbifly.com




SOURCES & CREDITS :

   NOAA